Time;durP1;ratioP1;P1;durP2;ratioP2;P2;SDS_P1;SDS_P2;PMS_P1;PMS_P2;Temp;Humidity;BMP_temperature;BMP_pressure;BME280_temperature;BME280_humidity;BME280_pressure;Samples;Min_cycle;Max_cycle;Signal;HPM_P1;HPM_P2
2022/03/06 00:00:14;;;;;;;10.00;8.80;;;;;;;;;;4923506;29;20106;-78
2022/03/06 00:02:41;;;;;;;9.70;8.35;;;;;;;;;;4923891;29;20130;-80
2022/03/06 00:05:07;;;;;;;10.48;8.80;;;;;;;;;;4926119;29;20059;-78
2022/03/06 00:07:33;;;;;;;9.98;8.52;;;;;;;;;;4923968;29;20488;-79
2022/03/06 00:09:59;;;;;;;9.82;8.82;;;;;;;;;;4925006;29;20047;-80
2022/03/06 00:12:25;;;;;;;9.45;8.45;;;;;;;;;;4930569;29;20063;-79
2022/03/06 00:14:51;;;;;;;9.75;8.75;;;;;;;;;;4925160;29;20139;-82
2022/03/06 00:17:17;;;;;;;9.23;8.23;;;;;;;;;;4930207;29;20075;-79
2022/03/06 00:19:46;;;;;;;9.38;7.80;;;;;;;;;;4925493;29;20035;-79
2022/03/06 00:22:12;;;;;;;10.35;8.55;;;;;;;;;;4922530;29;20062;-80
2022/03/06 00:24:38;;;;;;;9.07;8.18;;;;;;;;;;4921811;29;20103;-80
2022/03/06 00:27:05;;;;;;;9.55;8.07;;;;;;;;;;4923723;29;20051;-80
2022/03/06 00:29:30;;;;;;;11.13;8.65;;;;;;;;;;4928666;29;20146;-80
2022/03/06 00:31:56;;;;;;;9.75;8.80;;;;;;;;;;4928191;29;20127;-80
2022/03/06 00:34:23;;;;;;;9.48;8.48;;;;;;;;;;4928297;29;20131;-81
2022/03/06 00:36:49;;;;;;;9.23;8.27;;;;;;;;;;4929735;29;20040;-79
2022/03/06 00:39:15;;;;;;;9.27;8.35;;;;;;;;;;4934339;29;20126;-80
2022/03/06 00:41:43;;;;;;;9.90;8.35;;;;;;;;;;4930213;29;20404;-79
2022/03/06 00:44:09;;;;;;;9.27;8.07;;;;;;;;;;4928408;29;20052;-80
2022/03/06 00:46:35;;;;;;;9.52;8.27;;;;;;;;;;4933753;29;20051;-80
2022/03/06 00:49:02;;;;;;;9.82;8.13;;;;;;;;;;4934122;29;20555;-79
2022/03/06 00:51:28;;;;;;;10.10;8.60;;;;;;;;;;4936704;29;20048;-80
2022/03/06 00:53:54;;;;;;;9.77;8.40;;;;;;;;;;4934378;29;20051;-80
2022/03/06 00:56:20;;;;;;;9.13;8.23;;;;;;;;;;4932864;29;20194;-79
2022/03/06 00:58:46;;;;;;;9.75;8.13;;;;;;;;;;4936223;29;20522;-78
2022/03/06 01:01:12;;;;;;;9.82;7.90;;;;;;;;;;4934684;29;20051;-80
2022/03/06 01:03:40;;;;;;;9.48;8.45;;;;;;;;;;4932219;29;20492;-80
2022/03/06 01:06:06;;;;;;;8.90;8.00;;;;;;;;;;4933975;29;20091;-80
2022/03/06 01:08:35;;;;;;;8.45;7.65;;;;;;;;;;4932897;29;20044;-80
2022/03/06 01:11:02;;;;;;;8.68;7.72;;;;;;;;;;4933917;29;20067;-79
2022/03/06 01:13:28;;;;;;;11.57;8.77;;;;;;;;;;4935408;29;20114;-79
2022/03/06 01:15:54;;;;;;;9.65;8.40;;;;;;;;;;4933256;29;20102;-80
2022/03/06 01:18:20;;;;;;;10.85;8.18;;;;;;;;;;4936293;29;20505;-79
2022/03/06 01:20:46;;;;;;;9.18;8.27;;;;;;;;;;4933960;29;20111;-79
2022/03/06 01:23:12;;;;;;;9.18;8.02;;;;;;;;;;4935026;29;20127;-80
2022/03/06 01:25:38;;;;;;;9.05;8.15;;;;;;;;;;4933080;29;20083;-80
2022/03/06 01:28:05;;;;;;;9.57;8.57;;;;;;;;;;4936307;29;20043;-80
2022/03/06 01:30:31;;;;;;;10.88;8.50;;;;;;;;;;4935136;29;20488;-80
2022/03/06 01:32:57;;;;;;;9.25;8.35;;;;;;;;;;4933719;29;20114;-80
2022/03/06 01:35:23;;;;;;;10.45;8.35;;;;;;;;;;4934325;29;20047;-80
2022/03/06 01:37:49;;;;;;;9.43;8.35;;;;;;;;;;4930859;29;20519;-79
2022/03/06 01:40:19;;;;;;;10.05;9.00;;;;;;;;;;4929244;29;20060;-79
2022/03/06 01:42:46;;;;;;;10.52;8.77;;;;;;;;;;4935381;29;20507;-79
2022/03/06 01:45:12;;;;;;;9.98;8.77;;;;;;;;;;4932188;29;20051;-79
2022/03/06 01:47:40;;;;;;;9.73;8.52;;;;;;;;;;4931568;29;20056;-79
2022/03/06 01:50:07;;;;;;;10.15;8.80;;;;;;;;;;4932110;29;20055;-79
2022/03/06 01:52:33;;;;;;;9.77;8.77;;;;;;;;;;4933117;29;20543;-80
2022/03/06 01:54:59;;;;;;;9.93;8.93;;;;;;;;;;4933924;29;20050;-80
2022/03/06 01:57:26;;;;;;;9.93;8.57;;;;;;;;;;4927029;29;20047;-79
2022/03/06 01:59:52;;;;;;;9.38;8.38;;;;;;;;;;4932884;29;20308;-80
2022/03/06 02:02:19;;;;;;;10.10;8.68;;;;;;;;;;4930052;29;20043;-79
2022/03/06 02:04:45;;;;;;;9.57;8.68;;;;;;;;;;4931051;29;20043;-79
2022/03/06 02:07:14;;;;;;;9.57;8.55;;;;;;;;;;4932487;29;20054;-79
2022/03/06 02:09:40;;;;;;;10.38;9.38;;;;;;;;;;4930172;29;20048;-80
2022/03/06 02:12:22;;;;;;;12.15;9.57;;;;;;;;;;4931696;29;20399;-79
2022/03/06 02:14:49;;;;;;;10.10;9.10;;;;;;;;;;4922522;29;20385;-79
2022/03/06 02:17:15;;;;;;;9.85;8.75;;;;;;;;;;4931611;29;20062;-80
2022/03/06 02:19:51;;;;;;;10.65;9.23;;;;;;;;;;4926413;29;20473;-80
2022/03/06 02:22:17;;;;;;;10.57;9.20;;;;;;;;;;4931935;29;20071;-78
2022/03/06 02:24:43;;;;;;;10.52;9.52;;;;;;;;;;4933681;29;20047;-79
2022/03/06 02:27:10;;;;;;;10.15;9.13;;;;;;;;;;4934527;29;20075;-79
2022/03/06 02:29:41;;;;;;;11.55;9.90;;;;;;;;;;4933071;29;20066;-79
2022/03/06 02:32:11;;;;;;;11.13;9.80;;;;;;;;;;4930965;29;20942;-79
2022/03/06 02:34:41;;;;;;;11.15;9.77;;;;;;;;;;4932454;29;20138;-79
2022/03/06 02:37:07;;;;;;;10.95;9.85;;;;;;;;;;4932272;29;20547;-79
2022/03/06 02:39:33;;;;;;;10.93;9.82;;;;;;;;;;4933741;29;20059;-80
2022/03/06 02:42:01;;;;;;;10.93;9.75;;;;;;;;;;4933585;29;20055;-80
2022/03/06 02:44:28;;;;;;;11.25;9.88;;;;;;;;;;4924258;29;20488;-80
2022/03/06 02:46:54;;;;;;;10.65;9.55;;;;;;;;;;4930979;29;20051;-79
2022/03/06 02:49:20;;;;;;;11.20;9.98;;;;;;;;;;4931284;29;20110;-79
2022/03/06 02:51:46;;;;;;;10.85;9.75;;;;;;;;;;4933429;29;20079;-79
2022/03/06 02:54:17;;;;;;;11.02;9.90;;;;;;;;;;4930371;29;20052;-80
2022/03/06 02:56:46;;;;;;;;;;;;;;;;;;4934415;29;20048;-79
2022/03/06 02:59:12;;;;;;;10.65;8.98;;;;;;;;;;4931817;29;20319;-80
2022/03/06 03:01:40;;;;;;;9.80;8.75;;;;;;;;;;4933170;29;20177;-80
2022/03/06 03:04:06;;;;;;;9.80;8.77;;;;;;;;;;4929850;29;20064;-80
2022/03/06 03:06:32;;;;;;;10.43;9.32;;;;;;;;;;4932244;29;20126;-80
2022/03/06 03:08:58;;;;;;;10.95;9.30;;;;;;;;;;4920034;29;20048;-81
2022/03/06 03:11:29;;;;;;;9.82;8.77;;;;;;;;;;4930568;29;20056;-80
2022/03/06 03:13:55;;;;;;;10.02;8.20;;;;;;;;;;4931784;29;20055;-80
2022/03/06 03:16:21;;;;;;;9.52;8.63;;;;;;;;;;4931984;29;20056;-81
2022/03/06 03:18:47;;;;;;;10.88;9.40;;;;;;;;;;4930580;29;20047;-81
2022/03/06 03:21:13;;;;;;;9.48;8.48;;;;;;;;;;4931915;29;20056;-81
2022/03/06 03:23:39;;;;;;;9.98;9.05;;;;;;;;;;4929763;29;20047;-80
2022/03/06 03:26:05;;;;;;;10.25;9.10;;;;;;;;;;4925382;29;20143;-81
2022/03/06 03:28:31;;;;;;;10.45;8.77;;;;;;;;;;4929539;29;20131;-81
2022/03/06 03:30:57;;;;;;;9.90;8.90;;;;;;;;;;4931928;29;20047;-80
2022/03/06 03:33:23;;;;;;;10.45;9.38;;;;;;;;;;4931509;29;20047;-80
2022/03/06 03:35:49;;;;;;;10.00;9.00;;;;;;;;;;4931046;29;20444;-80
2022/03/06 03:38:16;;;;;;;10.68;9.57;;;;;;;;;;4928758;29;20175;-81
2022/03/06 03:40:42;;;;;;;11.52;9.57;;;;;;;;;;4931554;29;20062;-80
2022/03/06 03:43:08;;;;;;;11.88;9.45;;;;;;;;;;4931998;29;20048;-80
2022/03/06 03:45:34;;;;;;;10.48;9.38;;;;;;;;;;4930060;29;20496;-80
2022/03/06 03:48:01;;;;;;;9.75;8.75;;;;;;;;;;4932229;29;20050;-80
2022/03/06 03:50:27;;;;;;;10.35;8.70;;;;;;;;;;4916660;29;20055;-81
2022/03/06 03:52:53;;;;;;;10.18;8.90;;;;;;;;;;4931401;29;20115;-80
2022/03/06 03:55:19;;;;;;;9.52;8.57;;;;;;;;;;4930368;29;20048;-80
2022/03/06 03:57:45;;;;;;;9.73;8.73;;;;;;;;;;4930500;29;20111;-80
2022/03/06 04:00:11;;;;;;;9.48;8.48;;;;;;;;;;4928629;29;20044;-81
2022/03/06 04:02:38;;;;;;;10.30;9.10;;;;;;;;;;4930229;29;20043;-80
2022/03/06 04:05:04;;;;;;;9.40;8.40;;;;;;;;;;4930542;29;20055;-80
2022/03/06 04:07:30;;;;;;;10.10;8.63;;;;;;;;;;4930245;29;20048;-80
2022/03/06 04:09:56;;;;;;;9.77;8.77;;;;;;;;;;4929535;29;20040;-80
2022/03/06 04:12:22;;;;;;;9.95;8.68;;;;;;;;;;4931614;29;20634;-81
2022/03/06 04:14:49;;;;;;;9.57;8.65;;;;;;;;;;4928929;29;20115;-80
2022/03/06 04:17:16;;;;;;;10.18;8.38;;;;;;;;;;4931819;29;20082;-80
2022/03/06 04:19:42;;;;;;;9.23;8.32;;;;;;;;;;4929393;29;20080;-81
2022/03/06 04:22:08;;;;;;;8.60;7.70;;;;;;;;;;4934691;29;20043;-81
2022/03/06 04:24:34;;;;;;;10.55;7.72;;;;;;;;;;4935706;29;20146;-81
2022/03/06 04:27:00;;;;;;;8.38;7.43;;;;;;;;;;4931852;29;20079;-80
2022/03/06 04:29:26;;;;;;;8.45;7.50;;;;;;;;;;4934724;29;20047;-80
2022/03/06 04:31:53;;;;;;;8.38;7.45;;;;;;;;;;4934384;29;20047;-81
2022/03/06 04:34:19;;;;;;;9.15;8.25;;;;;;;;;;4934358;29;20466;-80
2022/03/06 04:36:45;;;;;;;8.38;7.47;;;;;;;;;;4933554;29;20043;-80
2022/03/06 04:39:11;;;;;;;8.07;7.22;;;;;;;;;;4936344;29;20063;-81
2022/03/06 04:41:37;;;;;;;7.65;6.68;;;;;;;;;;4932665;29;20066;-80
2022/03/06 04:44:03;;;;;;;7.38;6.60;;;;;;;;;;4934781;29;20495;-78
2022/03/06 04:46:29;;;;;;;8.25;6.60;;;;;;;;;;4935494;29;20051;-79
2022/03/06 04:48:55;;;;;;;7.57;6.75;;;;;;;;;;4933180;29;20530;-79
2022/03/06 04:51:21;;;;;;;8.05;6.50;;;;;;;;;;4932775;29;20044;-79
2022/03/06 04:53:47;;;;;;;7.30;5.97;;;;;;;;;;4932150;29;20506;-79
2022/03/06 04:56:13;;;;;;;7.85;6.13;;;;;;;;;;4933037;29;20141;-78
2022/03/06 04:58:40;;;;;;;6.22;5.57;;;;;;;;;;4936478;29;20035;-79
2022/03/06 05:01:06;;;;;;;7.00;5.20;;;;;;;;;;4934846;29;20130;-79
2022/03/06 05:03:33;;;;;;;6.65;6.03;;;;;;;;;;4933392;29;20054;-79
2022/03/06 05:05:59;;;;;;;5.95;5.35;;;;;;;;;;4935321;29;20043;-79
2022/03/06 05:08:27;;;;;;;5.78;5.22;;;;;;;;;;4933541;29;20780;-80
2022/03/06 05:10:53;;;;;;;6.63;5.88;;;;;;;;;;4932260;29;20052;-80
2022/03/06 05:13:20;;;;;;;6.00;5.40;;;;;;;;;;4930352;29;20055;-79
2022/03/06 05:15:46;;;;;;;6.43;4.65;;;;;;;;;;4933715;29;20055;-79
2022/03/06 05:18:12;;;;;;;4.65;4.07;;;;;;;;;;4923946;29;20039;-80
2022/03/06 05:20:38;;;;;;;4.45;4.05;;;;;;;;;;4933008;29;20079;-80
2022/03/06 05:23:04;;;;;;;4.97;3.83;;;;;;;;;;4936257;29;20087;-80
2022/03/06 05:25:30;;;;;;;3.85;3.30;;;;;;;;;;4931770;29;20062;-80
2022/03/06 05:27:56;;;;;;;3.60;3.30;;;;;;;;;;4933760;29;20135;-79
2022/03/06 05:30:23;;;;;;;4.07;2.90;;;;;;;;;;4932903;29;20075;-79
2022/03/06 05:32:49;;;;;;;3.42;2.90;;;;;;;;;;4933308;29;20403;-79
2022/03/06 05:35:15;;;;;;;3.83;3.10;;;;;;;;;;4934879;29;20374;-78
2022/03/06 05:37:41;;;;;;;3.38;2.60;;;;;;;;;;4931568;29;20807;-79
2022/03/06 05:40:07;;;;;;;2.90;2.70;;;;;;;;;;4934780;29;20063;-79
2022/03/06 05:42:34;;;;;;;3.40;2.63;;;;;;;;;;4934792;29;20062;-78
2022/03/06 05:45:00;;;;;;;2.95;2.60;;;;;;;;;;4933488;29;20075;-79
2022/03/06 05:47:26;;;;;;;2.80;2.60;;;;;;;;;;4934219;29;20051;-79
2022/03/06 05:49:52;;;;;;;3.10;2.67;;;;;;;;;;4931515;29;20485;-79
2022/03/06 05:52:18;;;;;;;3.10;2.78;;;;;;;;;;4948835;29;20152;-79
2022/03/06 05:54:44;;;;;;;3.08;2.50;;;;;;;;;;4928726;29;20044;-79
2022/03/06 05:57:10;;;;;;;4.03;2.90;;;;;;;;;;4930399;29;20047;-79
2022/03/06 05:59:36;;;;;;;2.70;2.50;;;;;;;;;;4927985;29;20043;-79
2022/03/06 06:02:02;;;;;;;2.35;2.13;;;;;;;;;;4932346;29;20051;-79
2022/03/06 06:04:28;;;;;;;3.00;2.40;;;;;;;;;;4934667;29;20095;-79
2022/03/06 06:06:54;;;;;;;3.25;2.30;;;;;;;;;;4933472;29;20167;-79
2022/03/06 06:09:20;;;;;;;2.55;2.30;;;;;;;;;;4934490;29;20054;-79
2022/03/06 06:11:46;;;;;;;4.72;2.33;;;;;;;;;;4932447;29;20036;-79
2022/03/06 06:14:12;;;;;;;2.35;2.15;;;;;;;;;;4931865;29;20467;-79
2022/03/06 06:16:38;;;;;;;3.70;2.15;;;;;;;;;;4932526;29;20083;-79
2022/03/06 06:19:06;;;;;;;2.10;2.00;;;;;;;;;;4931035;29;20138;-79
2022/03/06 06:21:35;;;;;;;2.28;2.00;;;;;;;;;;4933463;29;20067;-80
2022/03/06 06:24:01;;;;;;;2.40;2.20;;;;;;;;;;4933952;29;20487;-80
2022/03/06 06:26:27;;;;;;;2.50;2.30;;;;;;;;;;4934498;29;20043;-79
2022/03/06 06:28:57;;;;;;;2.92;2.17;;;;;;;;;;4932723;29;20118;-79
2022/03/06 06:31:24;;;;;;;2.58;2.20;;;;;;;;;;4931894;29;20058;-79
2022/03/06 06:33:50;;;;;;;3.10;2.13;;;;;;;;;;4932179;29;20403;-79
2022/03/06 06:36:18;;;;;;;2.30;2.10;;;;;;;;;;4933731;29;20515;-79
2022/03/06 06:38:44;;;;;;;2.08;1.98;;;;;;;;;;4930401;29;20059;-79
2022/03/06 06:41:10;;;;;;;3.92;2.17;;;;;;;;;;4933127;29;20136;-79
2022/03/06 06:43:38;;;;;;;3.60;2.00;;;;;;;;;;4931625;29;20051;-79
2022/03/06 06:46:04;;;;;;;2.08;1.90;;;;;;;;;;4931367;29;20430;-79
2022/03/06 06:48:30;;;;;;;2.50;2.30;;;;;;;;;;4930748;29;20623;-79
2022/03/06 06:50:56;;;;;;;2.20;2.10;;;;;;;;;;4931743;29;20134;-80
2022/03/06 06:53:22;;;;;;;2.92;2.15;;;;;;;;;;4933913;29;20276;-80
2022/03/06 06:55:48;;;;;;;2.22;2.03;;;;;;;;;;4929508;29;20130;-79
2022/03/06 06:58:14;;;;;;;2.38;2.00;;;;;;;;;;4932641;29;20146;-80
2022/03/06 07:00:41;;;;;;;3.22;2.10;;;;;;;;;;4928653;29;20050;-80
2022/03/06 07:03:07;;;;;;;2.42;2.20;;;;;;;;;;4932022;29;20396;-80
2022/03/06 07:05:33;;;;;;;3.88;2.13;;;;;;;;;;4931873;29;20099;-79
2022/03/06 07:07:59;;;;;;;2.40;2.20;;;;;;;;;;4931625;29;20484;-80
2022/03/06 07:10:25;;;;;;;2.85;2.20;;;;;;;;;;4930157;29;20054;-80
2022/03/06 07:12:54;;;;;;;2.97;2.30;;;;;;;;;;4931737;29;20126;-79
2022/03/06 07:15:20;;;;;;;4.35;2.10;;;;;;;;;;4928989;29;20052;-80
2022/03/06 07:17:46;;;;;;;2.45;2.25;;;;;;;;;;4930935;29;20074;-79
2022/03/06 07:20:13;;;;;;;2.65;2.30;;;;;;;;;;4928556;29;20058;-80
2022/03/06 07:22:39;;;;;;;2.72;2.20;;;;;;;;;;4916015;29;20047;-79
2022/03/06 07:25:05;;;;;;;2.70;2.25;;;;;;;;;;4931027;29;20063;-80
2022/03/06 07:27:31;;;;;;;2.53;2.25;;;;;;;;;;4928774;29;20075;-79
2022/03/06 07:29:57;;;;;;;2.80;2.20;;;;;;;;;;4928961;29;20080;-80
2022/03/06 07:32:24;;;;;;;2.50;2.30;;;;;;;;;;4930046;29;20050;-80
2022/03/06 07:34:50;;;;;;;2.65;2.45;;;;;;;;;;4932354;29;20048;-80
2022/03/06 07:37:16;;;;;;;4.18;2.30;;;;;;;;;;4931450;29;20411;-79
2022/03/06 07:39:42;;;;;;;3.65;2.30;;;;;;;;;;4930639;29;20112;-80
2022/03/06 07:42:08;;;;;;;3.10;2.47;;;;;;;;;;4932924;29;20056;-81
2022/03/06 07:44:34;;;;;;;2.88;2.42;;;;;;;;;;4933935;29;20054;-80
2022/03/06 07:47:00;;;;;;;3.15;2.30;;;;;;;;;;4931274;29;20052;-86
2022/03/06 07:49:26;;;;;;;2.58;2.38;;;;;;;;;;4932577;29;20035;-83
2022/03/06 07:51:52;;;;;;;4.43;2.60;;;;;;;;;;4932130;29;20389;-84
2022/03/06 07:54:18;;;;;;;2.60;2.40;;;;;;;;;;4930167;29;20055;-84
2022/03/06 07:56:49;;;;;;;2.60;2.40;;;;;;;;;;4933440;29;20058;-84
2022/03/06 07:59:15;;;;;;;2.63;2.30;;;;;;;;;;4927336;29;20052;-83
2022/03/06 08:01:41;;;;;;;3.28;2.33;;;;;;;;;;4929691;29;20126;-83
2022/03/06 08:04:07;;;;;;;3.35;2.58;;;;;;;;;;4932702;29;20281;-84
2022/03/06 08:06:33;;;;;;;2.47;2.28;;;;;;;;;;4931411;29;20047;-83
2022/03/06 08:09:02;;;;;;;2.88;2.20;;;;;;;;;;4933832;29;20044;-83
2022/03/06 08:11:29;;;;;;;2.50;2.30;;;;;;;;;;4931727;29;20058;-84
2022/03/06 08:13:55;;;;;;;2.97;2.28;;;;;;;;;;4931398;29;20047;-83
2022/03/06 08:16:21;;;;;;;3.50;2.28;;;;;;;;;;4933596;29;20051;-83
2022/03/06 08:18:47;;;;;;;3.40;2.38;;;;;;;;;;4935791;23;20521;-84
2022/03/06 08:21:14;;;;;;;4.43;2.38;;;;;;;;;;4912554;29;20040;-82
2022/03/06 08:23:40;;;;;;;3.53;2.20;;;;;;;;;;4908008;29;20057;-86
2022/03/06 08:26:06;;;;;;;2.25;2.10;;;;;;;;;;4913737;29;20404;-84
2022/03/06 08:28:32;;;;;;;2.88;2.30;;;;;;;;;;4913656;29;20044;-84
2022/03/06 08:30:58;;;;;;;2.92;2.05;;;;;;;;;;4924754;29;20045;-85
2022/03/06 08:33:24;;;;;;;2.50;2.30;;;;;;;;;;4905861;29;20108;-84
2022/03/06 08:35:51;;;;;;;2.60;2.40;;;;;;;;;;4909957;29;20434;-83
2022/03/06 08:38:17;;;;;;;2.53;2.10;;;;;;;;;;4911149;29;20490;-84
2022/03/06 08:40:44;;;;;;;2.70;2.50;;;;;;;;;;4906008;29;20457;-84
2022/03/06 08:43:10;;;;;;;4.80;2.60;;;;;;;;;;4906960;29;20043;-85
2022/03/06 08:45:37;;;;;;;2.50;2.30;;;;;;;;;;4914222;29;20408;-83
2022/03/06 08:48:04;;;;;;;2.25;2.10;;;;;;;;;;4910213;29;20143;-84
2022/03/06 08:50:30;;;;;;;2.60;2.40;;;;;;;;;;4912975;29;20099;-83
2022/03/06 08:52:56;;;;;;;4.97;3.20;;;;;;;;;;4911670;29;20050;-85
2022/03/06 08:55:23;;;;;;;4.40;2.70;;;;;;;;;;4905033;29;20119;-84
2022/03/06 08:57:48;;;;;;;2.50;2.30;;;;;;;;;;4912750;29;20051;-84
2022/03/06 09:00:15;;;;;;;2.60;2.33;;;;;;;;;;4913203;29;20056;-86
2022/03/06 09:02:41;;;;;;;2.60;2.40;;;;;;;;;;4910924;29;20052;-84
2022/03/06 09:05:07;;;;;;;3.35;2.13;;;;;;;;;;4912983;29;20079;-84
2022/03/06 09:07:33;;;;;;;2.40;2.20;;;;;;;;;;4909034;29;20068;-84
2022/03/06 09:09:59;;;;;;;2.85;2.40;;;;;;;;;;4924644;29;20102;-85
2022/03/06 09:12:26;;;;;;;2.58;2.38;;;;;;;;;;4915169;29;22225;-84
2022/03/06 09:14:52;;;;;;;2.53;2.33;;;;;;;;;;4916893;29;20152;-84
2022/03/06 09:17:19;;;;;;;4.60;2.72;;;;;;;;;;4916275;29;20044;-84
2022/03/06 09:19:45;;;;;;;2.67;2.47;;;;;;;;;;4914943;29;20100;-84
2022/03/06 09:22:11;;;;;;;2.55;2.25;;;;;;;;;;4913386;29;20051;-84
2022/03/06 09:24:37;;;;;;;2.72;2.53;;;;;;;;;;4915627;29;20493;-85
2022/03/06 09:27:03;;;;;;;2.65;2.45;;;;;;;;;;4910335;29;20079;-83
2022/03/06 09:29:29;;;;;;;2.55;2.35;;;;;;;;;;4914581;29;20204;-84
2022/03/06 09:31:55;;;;;;;3.33;2.33;;;;;;;;;;4914550;29;20122;-83
2022/03/06 09:34:21;;;;;;;2.80;2.50;;;;;;;;;;4913957;29;20060;-84
2022/03/06 09:36:47;;;;;;;3.55;2.40;;;;;;;;;;4920763;29;20059;-85
2022/03/06 09:39:15;;;;;;;3.42;2.95;;;;;;;;;;4927263;29;20044;-84
2022/03/06 09:41:41;;;;;;;2.90;2.70;;;;;;;;;;4913523;29;20044;-85
2022/03/06 09:44:08;;;;;;;3.53;2.55;;;;;;;;;;4913230;29;20051;-86
2022/03/06 09:46:35;;;;;;;3.75;2.60;;;;;;;;;;4915236;29;20067;-85
2022/03/06 09:49:01;;;;;;;3.50;2.47;;;;;;;;;;4913477;29;20036;-84
2022/03/06 09:51:27;;;;;;;4.00;2.80;;;;;;;;;;4916097;29;20165;-84
2022/03/06 09:53:55;;;;;;;2.95;2.45;;;;;;;;;;4914129;29;20040;-85
2022/03/06 09:56:21;;;;;;;3.13;2.58;;;;;;;;;;4917582;29;20052;-84
2022/03/06 09:58:49;;;;;;;2.88;2.65;;;;;;;;;;4914487;29;20513;-85
2022/03/06 10:01:17;;;;;;;2.92;2.20;;;;;;;;;;4912069;29;20555;-84
2022/03/06 10:03:46;;;;;;;4.93;2.50;;;;;;;;;;4922317;29;20054;-85
2022/03/06 10:06:12;;;;;;;2.75;2.55;;;;;;;;;;4918673;29;20400;-85
2022/03/06 10:08:38;;;;;;;2.70;2.50;;;;;;;;;;4915211;29;20107;-86
2022/03/06 10:11:06;;;;;;;5.80;2.78;;;;;;;;;;4914671;29;20052;-84
2022/03/06 10:13:36;;;;;;;3.72;2.60;;;;;;;;;;4914899;29;20143;-86
2022/03/06 10:16:19;;;;;;;3.70;2.50;;;;;;;;;;4910559;29;20051;-85
2022/03/06 10:18:51;;;;;;;3.95;2.65;;;;;;;;;;4917240;29;20060;-86
2022/03/06 10:21:19;;;;;;;3.03;2.72;;;;;;;;;;4928762;29;20051;-84
2022/03/06 10:23:46;;;;;;;3.50;2.65;;;;;;;;;;4916500;29;20047;-85
2022/03/06 10:26:16;;;;;;;2.80;2.28;;;;;;;;;;4919460;29;20052;-85
2022/03/06 10:28:50;;;;;;;2.60;2.22;;;;;;;;;;4912616;29;20043;-85
2022/03/06 10:31:16;;;;;;;3.03;2.33;;;;;;;;;;4915402;29;20453;-85
2022/03/06 10:33:54;;;;;;;2.90;2.22;;;;;;;;;;4915261;29;20104;-86
2022/03/06 10:36:31;;;;;;;3.08;2.50;;;;;;;;;;4910849;29;20112;-85
2022/03/06 10:39:00;;;;;;;2.90;2.60;;;;;;;;;;4915158;29;20632;-85
2022/03/06 10:41:38;;;;;;;3.55;2.40;;;;;;;;;;4912128;29;20560;-84
2022/03/06 10:44:04;;;;;;;3.15;2.50;;;;;;;;;;4912826;29;20091;-84
2022/03/06 10:46:33;;;;;;;3.20;2.60;;;;;;;;;;4915357;29;20051;-85
2022/03/06 10:49:01;;;;;;;3.42;2.50;;;;;;;;;;4910623;29;20127;-84
2022/03/06 10:51:27;;;;;;;5.82;2.30;;;;;;;;;;4912760;29;20051;-84
2022/03/06 10:53:55;;;;;;;3.05;2.30;;;;;;;;;;4911577;29;20253;-85
2022/03/06 10:56:21;;;;;;;2.25;2.10;;;;;;;;;;4913585;29;20131;-84
2022/03/06 10:58:48;;;;;;;2.45;2.25;;;;;;;;;;4912755;29;20134;-84
2022/03/06 11:01:16;;;;;;;3.53;2.30;;;;;;;;;;4906233;29;20044;-86
2022/03/06 11:03:42;;;;;;;2.47;2.20;;;;;;;;;;4908527;29;20052;-87
2022/03/06 11:06:09;;;;;;;2.55;2.22;;;;;;;;;;4924644;29;20051;-86
2022/03/06 11:08:36;;;;;;;2.70;2.33;;;;;;;;;;4911712;29;20118;-86
2022/03/06 11:11:06;;;;;;;2.78;2.20;;;;;;;;;;4908549;29;20074;-86
2022/03/06 11:13:32;;;;;;;4.80;2.50;;;;;;;;;;4915060;29;20396;-85
2022/03/06 11:15:59;;;;;;;2.75;2.40;;;;;;;;;;4912449;29;20151;-84
2022/03/06 11:18:26;;;;;;;3.45;2.60;;;;;;;;;;4915138;29;20176;-84
2022/03/06 11:20:53;;;;;;;2.83;2.20;;;;;;;;;;4930494;29;20184;-83
2022/03/06 11:23:28;;;;;;;2.45;2.15;;;;;;;;;;4926207;29;20052;-81
2022/03/06 11:25:54;;;;;;;2.88;2.53;;;;;;;;;;4914016;29;20215;-84
2022/03/06 11:28:38;;;;;;;3.10;2.30;;;;;;;;;;4921496;29;20087;-83
2022/03/06 11:31:04;;;;;;;2.35;2.15;;;;;;;;;;4929584;29;20120;-81
2022/03/06 11:33:30;;;;;;;2.88;2.38;;;;;;;;;;4911244;29;20047;-84
2022/03/06 11:35:57;;;;;;;3.40;2.47;;;;;;;;;;4913046;29;20044;-84
2022/03/06 11:38:38;;;;;;;2.50;2.30;;;;;;;;;;4915686;29;20127;-83
2022/03/06 11:41:13;;;;;;;2.42;2.20;;;;;;;;;;4914676;29;20052;-84
2022/03/06 11:43:44;;;;;;;2.72;2.28;;;;;;;;;;4929303;29;20562;-84
2022/03/06 11:46:16;;;;;;;1.90;1.80;;;;;;;;;;4914250;29;20052;-83
2022/03/06 11:48:45;;;;;;;3.78;2.22;;;;;;;;;;4909354;29;20143;-81
2022/03/06 11:51:19;;;;;;;2.35;2.05;;;;;;;;;;4913099;29;20060;-82
2022/03/06 11:54:02;;;;;;;2.22;2.13;;;;;;;;;;4920006;29;20059;-82
2022/03/06 11:56:34;;;;;;;3.72;2.30;;;;;;;;;;4913879;29;20143;-82
2022/03/06 11:59:19;;;;;;;3.88;2.53;;;;;;;;;;4901791;29;20068;-84
2022/03/06 12:01:49;;;;;;;2.42;2.13;;;;;;;;;;4894998;29;20123;-82
2022/03/06 12:04:21;;;;;;;4.28;2.15;;;;;;;;;;4910363;29;20099;-86
2022/03/06 12:06:48;;;;;;;3.58;2.47;;;;;;;;;;4913787;29;20493;-85
2022/03/06 12:09:16;;;;;;;2.78;2.03;;;;;;;;;;4914594;29;20084;-86
2022/03/06 12:11:42;;;;;;;2.60;2.13;;;;;;;;;;4910873;29;20493;-86
2022/03/06 12:14:12;;;;;;;4.05;2.40;;;;;;;;;;4909467;29;20409;-85
2022/03/06 12:16:58;;;;;;;2.08;1.98;;;;;;;;;;4904126;29;20131;-85
2022/03/06 12:19:25;;;;;;;3.33;2.08;;;;;;;;;;4904896;29;20084;-84
2022/03/06 12:21:51;;;;;;;2.38;2.17;;;;;;;;;;4914817;29;20161;-85
2022/03/06 12:24:29;;;;;;;2.90;1.98;;;;;;;;;;4908534;29;20467;-83
2022/03/06 12:26:57;;;;;;;2.25;2.05;;;;;;;;;;4894197;29;20080;-82
2022/03/06 12:29:52;;;;;;;3.22;1.90;;;;;;;;;;4895296;29;20457;-85
2022/03/06 12:32:27;;;;;;;2.42;2.10;;;;;;;;;;4894696;29;20092;-84
2022/03/06 12:34:56;;;;;;;2.45;2.25;;;;;;;;;;4904812;29;20123;-83
2022/03/06 12:37:27;;;;;;;4.80;2.50;;;;;;;;;;4899372;29;20099;-83
2022/03/06 12:39:53;;;;;;;2.47;2.22;;;;;;;;;;4909166;29;20140;-83
2022/03/06 12:42:30;;;;;;;3.13;2.17;;;;;;;;;;4914316;29;20055;-83
2022/03/06 12:44:57;;;;;;;2.55;1.90;;;;;;;;;;4913423;29;20108;-83
2022/03/06 12:47:23;;;;;;;2.47;2.22;;;;;;;;;;4916099;29;20044;-83
2022/03/06 12:49:50;;;;;;;3.83;2.13;;;;;;;;;;4917008;29;20107;-83
2022/03/06 12:52:17;;;;;;;2.13;2.03;;;;;;;;;;4913361;29;20060;-83
2022/03/06 12:54:46;;;;;;;3.10;2.60;;;;;;;;;;4898793;29;20076;-84
2022/03/06 12:57:12;;;;;;;3.05;2.25;;;;;;;;;;4913181;29;20052;-83
2022/03/06 12:59:41;;;;;;;2.13;1.95;;;;;;;;;;4908646;29;20560;-83
2022/03/06 13:02:07;;;;;;;2.58;2.38;;;;;;;;;;4900297;29;20048;-84
2022/03/06 13:04:34;;;;;;;2.70;2.17;;;;;;;;;;4917146;29;20052;-80
2022/03/06 13:07:00;;;;;;;2.20;2.10;;;;;;;;;;4915593;29;20501;-83
2022/03/06 13:09:29;;;;;;;3.40;2.40;;;;;;;;;;4914548;29;20059;-83
2022/03/06 13:11:56;;;;;;;4.93;2.40;;;;;;;;;;4916440;29;20567;-82
2022/03/06 13:14:27;;;;;;;3.15;2.10;;;;;;;;;;4906858;29;20091;-83
2022/03/06 13:16:57;;;;;;;2.55;2.05;;;;;;;;;;4897124;29;20385;-83
2022/03/06 13:19:25;;;;;;;3.90;2.30;;;;;;;;;;4898125;29;20060;-83
2022/03/06 13:21:52;;;;;;;2.38;2.17;;;;;;;;;;4897223;29;20060;-83
2022/03/06 13:24:18;;;;;;;3.22;2.30;;;;;;;;;;4898689;29;20530;-83
2022/03/06 13:26:44;;;;;;;3.03;2.20;;;;;;;;;;4911653;29;20063;-82
2022/03/06 13:29:14;;;;;;;3.60;2.10;;;;;;;;;;4899042;29;20513;-82
2022/03/06 13:31:41;;;;;;;3.65;2.20;;;;;;;;;;4916764;29;20140;-83
2022/03/06 13:34:08;;;;;;;2.30;2.10;;;;;;;;;;4917186;29;20047;-83
2022/03/06 13:36:38;;;;;;;2.30;2.10;;;;;;;;;;4908196;29;20064;-82
2022/03/06 13:39:06;;;;;;;1.95;1.85;;;;;;;;;;4898704;29;20056;-83
2022/03/06 13:41:32;;;;;;;4.38;2.33;;;;;;;;;;4910652;29;20389;-80
2022/03/06 13:43:58;;;;;;;3.85;2.10;;;;;;;;;;4915156;29;20044;-84
2022/03/06 13:46:26;;;;;;;3.15;2.03;;;;;;;;;;4912484;29;20454;-82
2022/03/06 13:49:06;;;;;;;2.65;2.03;;;;;;;;;;4913304;29;20118;-83
2022/03/06 13:51:33;;;;;;;2.50;2.22;;;;;;;;;;4908604;29;20116;-83
2022/03/06 13:54:00;;;;;;;2.35;1.95;;;;;;;;;;4910929;29;20060;-83
2022/03/06 13:56:30;;;;;;;2.33;2.10;;;;;;;;;;4914500;29;21747;-83
2022/03/06 13:58:57;;;;;;;2.45;2.20;;;;;;;;;;4914497;29;20087;-83
2022/03/06 14:01:24;;;;;;;2.97;2.22;;;;;;;;;;4914807;29;20068;-84
2022/03/06 14:03:57;;;;;;;2.30;2.10;;;;;;;;;;4910286;29;20071;-83
2022/03/06 14:06:32;;;;;;;2.30;2.15;;;;;;;;;;4916576;29;20087;-83
2022/03/06 14:08:58;;;;;;;2.17;1.77;;;;;;;;;;4913924;29;20040;-82
2022/03/06 14:11:25;;;;;;;2.38;2.00;;;;;;;;;;4912892;29;20124;-83
2022/03/06 14:13:55;;;;;;;3.85;1.98;;;;;;;;;;4912734;29;20048;-83
2022/03/06 14:16:27;;;;;;;2.00;1.80;;;;;;;;;;4912417;29;20102;-82
2022/03/06 14:18:54;;;;;;;2.92;2.00;;;;;;;;;;4912613;29;20056;-82
2022/03/06 14:21:24;;;;;;;3.10;1.98;;;;;;;;;;4907003;29;20056;-79
2022/03/06 14:24:01;;;;;;;6.10;2.20;;;;;;;;;;4913064;29;20048;-81
2022/03/06 14:26:31;;;;;;;3.67;2.47;;;;;;;;;;4901051;29;20071;-82
2022/03/06 14:29:03;;;;;;;3.03;2.45;;;;;;;;;;4915808;29;20123;-81
2022/03/06 14:31:30;;;;;;;3.05;2.40;;;;;;;;;;4919287;29;20067;-82
2022/03/06 14:33:56;;;;;;;3.20;2.20;;;;;;;;;;4908902;29;20049;-82
2022/03/06 14:36:23;;;;;;;3.25;2.08;;;;;;;;;;4915302;29;20054;-83
2022/03/06 14:38:49;;;;;;;2.20;2.00;;;;;;;;;;4912427;29;20437;-82
2022/03/06 14:41:16;;;;;;;2.22;1.98;;;;;;;;;;4914842;29;20453;-82